Bretagne — FNBR — position and weather

sailwx.info

Track history (hours):
 
Tides and Currents Weather Stations Pressure Air Temp Water Temp Dewpoint Dewpoint Depression Visibility Wind Speed Wind Dir Waves Ship Positions

Bretagne

Operator: Brittany Ferries

Last reported at 2014-Sep-21 21:30 UTC. Time now 2014-Sep-21 22:16 UTC.
Position N 50°27' W 001°18'.

Length 151 m; beam 27 m.

Type: Passenger vessel. MMSI: 227286000.

Date/timePositionNaut miles runAvg speedWind from/ knotsBaromVisibWave heightAir tempDewpointWater temp
2014-Sep-21 21:30N 50°27' W 001°18'1414.9
2014-Sep-21 20:33N 50°38' W 001°06'1010.2
2014-Sep-21 19:34N 50°49' W 001°06'0 0.1
2014-Sep-21 18:32N 50°49' W 001°06'0 0.0
2014-Sep-21 17:32N 50°49' W 001°06'0 0.0
2014-Sep-21 16:32N 50°49' W 001°06'0 0.0
2014-Sep-21 15:32N 50°49' W 001°06'0 0.0
2014-Sep-21 14:32N 50°49' W 001°06'0 0.0
2014-Sep-21 13:32N 50°49' W 001°06'0 0.0
2014-Sep-21 12:32N 50°49' W 001°06'0 0.0
2014-Sep-21 11:32N 50°49' W 001°06'0 0.0
2014-Sep-21 10:32N 50°49' W 001°06'0 0.0
2014-Sep-21 09:32N 50°49' W 001°06'0 0.0
2014-Sep-21 08:32N 50°49' W 001°06'0 0.0
2014-Sep-21 07:32N 50°49' W 001°06'0 0.0
2014-Sep-21 06:33N 50°49' W 001°06'1111.0
2014-Sep-21 05:33N 50°38' W 001°07'63 2.1
2014-Sep-20 00:10N 49°46' W 002°02'2615.9
2014-Sep-19 22:34N 50°07' W 001°40'1616.4
2014-Sep-19 21:34N 50°21' W 001°25'1616.2
2014-Sep-19 20:34N 50°34' W 001°10'1211.5
2014-Sep-19 19:34N 50°45' W 001°05'4 3.6
2014-Sep-19 18:33N 50°49' W 001°06'0 0.0
2014-Sep-19 17:33N 50°49' W 001°06'0 0.0
2014-Sep-19 16:33N 50°49' W 001°06'0 0.0
2014-Sep-19 15:33N 50°49' W 001°06'0 0.0
2014-Sep-19 14:33N 50°49' W 001°06'0 0.0
2014-Sep-19 13:33N 50°49' W 001°06'0 0.0
2014-Sep-19 12:33N 50°49' W 001°06'0 0.0
2014-Sep-19 11:33N 50°49' W 001°06'0 0.0
2014-Sep-19 10:33N 50°49' W 001°06'0 0.0
2014-Sep-19 09:33N 50°49' W 001°06'0 0.0
2014-Sep-19 08:33N 50°49' W 001°06'0 0.0
2014-Sep-19 07:33N 50°49' W 001°06'0 0.0
2014-Sep-19 06:33N 50°49' W 001°06'1111.3
2014-Sep-19 05:33N 50°37' W 001°07'19 0.6
2014-Sep-17 21:31N 50°22' W 001°25'1616.4
2014-Sep-17 20:34N 50°34' W 001°10'1212.4
2014-Sep-17 19:33N 50°46' W 001°06'2 2.2
2014-Sep-17 18:31N 50°49' W 001°06'0 0.0
2014-Sep-17 17:31N 50°49' W 001°06'0 0.0
2014-Sep-17 16:31N 50°49' W 001°06'0 0.0
2014-Sep-17 15:31N 50°49' W 001°06'0 0.0
2014-Sep-17 14:31N 50°49' W 001°06'0 0.0
2014-Sep-17 13:31N 50°49' W 001°06'0 0.0
2014-Sep-17 12:31N 50°49' W 001°06'0 0.0
2014-Sep-17 11:31N 50°49' W 001°06'0 0.0
2014-Sep-17 10:31N 50°49' W 001°06'0 0.0
2014-Sep-17 09:31N 50°49' W 001°06'0 0.0
2014-Sep-17 08:31N 50°49' W 001°06'0 0.0
2014-Sep-17 07:31N 50°49' W 001°06'0 0.0
2014-Sep-17 06:33N 50°49' W 001°06'1111.0
2014-Sep-17 05:33N 50°38' W 001°06'8912.6
2014-Sep-16 22:31N 49°22' W 002°18'1311.2
2014-Sep-16 21:20N 49°09' W 002°22'910.9
2014-Sep-16 20:33N 49°00' W 002°22'18 1.2
2014-Sep-16 05:28N 48°44' W 002°08'1916.4
2014-Sep-16 04:20N 48°60' W 002°24'5213.8
2014-Sep-16 00:34N 49°49' W 001°57'1413.9
2014-Sep-15 23:33N 49°60' W 001°44'3115.2
2014-Sep-15 21:30N 50°26' W 001°18'1515.8
2014-Sep-15 20:33N 50°38' W 001°03'1110.7
2014-Sep-15 19:33N 50°48' W 001°07'1 0.9
2014-Sep-15 18:33N 50°49' W 001°06'0 0.0
2014-Sep-15 17:33N 50°49' W 001°06'4 4.3
2014-Sep-15 16:33N 50°44' W 001°04'1313.4
2014-Sep-15 15:33N 50°32' W 001°13'8 0.5
2014-Sep-14 21:33N 50°24' W 001°18'1514.7
2014-Sep-14 20:34N 50°36' W 001°05'1010.3
2014-Sep-14 19:33N 50°47' W 001°06'2 1.9
2014-Sep-14 18:31N 50°49' W 001°06'0 0.0
2014-Sep-14 17:33N 50°49' W 001°06'4 4.4
2014-Sep-14 16:33N 50°44' W 001°04'1413.9
2014-Sep-14 15:33N 50°32' W 001°13'1413.5
2014-Sep-14 14:33N 50°21' W 001°27'6 0.4
2014-Sep-13 21:33N 50°23' W 001°17'1413.7
2014-Sep-13 20:34N 50°35' W 001°06'1010.0
2014-Sep-13 19:34N 50°45' W 001°05'4 4.0
2014-Sep-13 18:33N 50°49' W 001°06'0 0.0
2014-Sep-13 17:33N 50°49' W 001°06'6 5.7
2014-Sep-13 16:33N 50°43' W 001°03'1514.8
2014-Sep-13 15:33N 50°30' W 001°13'15 0.9
2014-Sep-12 22:26N 50°18' W 001°26'1112.4
2014-Sep-12 21:33N 50°25' W 001°14'1313.0
2014-Sep-12 20:34N 50°37' W 001°04'1010.3
2014-Sep-12 19:34N 50°47' W 001°06'2 1.8
2014-Sep-12 18:31N 50°49' W 001°06'0 0.0
2014-Sep-12 17:31N 50°49' W 001°06'7 7.3
2014-Sep-12 16:33N 50°42' W 001°03'27 1.5
2014-Sep-11 22:31N 50°18' W 001°24'1212.7
2014-Sep-11 21:33N 50°27' W 001°12'  
Track history (hours):
 
Tides and Currents Weather Stations Pressure Air Temp Water Temp Dewpoint Dewpoint Depression Visibility Wind Speed Wind Dir Waves Ship Positions

Bretagne

Operator: Brittany Ferries

Last reported at 2014-Sep-21 21:30 UTC. Time now 2014-Sep-21 22:16 UTC.
Position N 50°27' W 001°18'.

Length 151 m; beam 27 m.

Type: Passenger vessel. MMSI: 227286000.

Date/timePositionNaut miles runAvg speedWind from/ knotsBaromVisibWave heightAir tempDewpointWater temp
2014-Sep-21 21:30N 50°27' W 001°18'1414.9
2014-Sep-21 20:33N 50°38' W 001°06'1010.2
2014-Sep-21 19:34N 50°49' W 001°06'0 0.1
2014-Sep-21 18:32N 50°49' W 001°06'0 0.0
2014-Sep-21 17:32N 50°49' W 001°06'0 0.0
2014-Sep-21 16:32N 50°49' W 001°06'0 0.0
2014-Sep-21 15:32N 50°49' W 001°06'0 0.0
2014-Sep-21 14:32N 50°49' W 001°06'0 0.0
2014-Sep-21 13:32N 50°49' W 001°06'0 0.0
2014-Sep-21 12:32N 50°49' W 001°06'0 0.0
2014-Sep-21 11:32N 50°49' W 001°06'0 0.0
2014-Sep-21 10:32N 50°49' W 001°06'0 0.0
2014-Sep-21 09:32N 50°49' W 001°06'0 0.0
2014-Sep-21 08:32N 50°49' W 001°06'0 0.0
2014-Sep-21 07:32N 50°49' W 001°06'0 0.0
2014-Sep-21 06:33N 50°49' W 001°06'1111.0
2014-Sep-21 05:33N 50°38' W 001°07'63 2.1
2014-Sep-20 00:10N 49°46' W 002°02'2615.9
2014-Sep-19 22:34N 50°07' W 001°40'1616.4
2014-Sep-19 21:34N 50°21' W 001°25'1616.2
2014-Sep-19 20:34N 50°34' W 001°10'1211.5
2014-Sep-19 19:34N 50°45' W 001°05'4 3.6
2014-Sep-19 18:33N 50°49' W 001°06'0 0.0
2014-Sep-19 17:33N 50°49' W 001°06'0 0.0
2014-Sep-19 16:33N 50°49' W 001°06'0 0.0
2014-Sep-19 15:33N 50°49' W 001°06'0 0.0
2014-Sep-19 14:33N 50°49' W 001°06'0 0.0
2014-Sep-19 13:33N 50°49' W 001°06'0 0.0
2014-Sep-19 12:33N 50°49' W 001°06'0 0.0
2014-Sep-19 11:33N 50°49' W 001°06'0 0.0
2014-Sep-19 10:33N 50°49' W 001°06'0 0.0
2014-Sep-19 09:33N 50°49' W 001°06'0 0.0
2014-Sep-19 08:33N 50°49' W 001°06'0 0.0
2014-Sep-19 07:33N 50°49' W 001°06'0 0.0
2014-Sep-19 06:33N 50°49' W 001°06'1111.3
2014-Sep-19 05:33N 50°37' W 001°07'19 0.6
2014-Sep-17 21:31N 50°22' W 001°25'1616.4
2014-Sep-17 20:34N 50°34' W 001°10'1212.4
2014-Sep-17 19:33N 50°46' W 001°06'2 2.2
2014-Sep-17 18:31N 50°49' W 001°06'0 0.0
2014-Sep-17 17:31N 50°49' W 001°06'0 0.0
2014-Sep-17 16:31N 50°49' W 001°06'0 0.0
2014-Sep-17 15:31N 50°49' W 001°06'0 0.0
2014-Sep-17 14:31N 50°49' W 001°06'0 0.0
2014-Sep-17 13:31N 50°49' W 001°06'0 0.0
2014-Sep-17 12:31N 50°49' W 001°06'0 0.0
2014-Sep-17 11:31N 50°49' W 001°06'0 0.0
2014-Sep-17 10:31N 50°49' W 001°06'0 0.0
2014-Sep-17 09:31N 50°49' W 001°06'0 0.0
2014-Sep-17 08:31N 50°49' W 001°06'0 0.0
2014-Sep-17 07:31N 50°49' W 001°06'0 0.0
2014-Sep-17 06:33N 50°49' W 001°06'1111.0
2014-Sep-17 05:33N 50°38' W 001°06'8912.6
2014-Sep-16 22:31N 49°22' W 002°18'1311.2
2014-Sep-16 21:20N 49°09' W 002°22'910.9
2014-Sep-16 20:33N 49°00' W 002°22'18 1.2
2014-Sep-16 05:28N 48°44' W 002°08'1916.4
2014-Sep-16 04:20N 48°60' W 002°24'5213.8
2014-Sep-16 00:34N 49°49' W 001°57'1413.9
2014-Sep-15 23:33N 49°60' W 001°44'3115.2
2014-Sep-15 21:30N 50°26' W 001°18'1515.8
2014-Sep-15 20:33N 50°38' W 001°03'1110.7
2014-Sep-15 19:33N 50°48' W 001°07'1 0.9
2014-Sep-15 18:33N 50°49' W 001°06'0 0.0
2014-Sep-15 17:33N 50°49' W 001°06'4 4.3
2014-Sep-15 16:33N 50°44' W 001°04'1313.4
2014-Sep-15 15:33N 50°32' W 001°13'8 0.5
2014-Sep-14 21:33N 50°24' W 001°18'1514.7
2014-Sep-14 20:34N 50°36' W 001°05'1010.3
2014-Sep-14 19:33N 50°47' W 001°06'2 1.9
2014-Sep-14 18:31N 50°49' W 001°06'0 0.0
2014-Sep-14 17:33N 50°49' W 001°06'4 4.4
2014-Sep-14 16:33N 50°44' W 001°04'1413.9
2014-Sep-14 15:33N 50°32' W 001°13'1413.5
2014-Sep-14 14:33N 50°21' W 001°27'6 0.4
2014-Sep-13 21:33N 50°23' W 001°17'1413.7
2014-Sep-13 20:34N 50°35' W 001°06'1010.0
2014-Sep-13 19:34N 50°45' W 001°05'4 4.0
2014-Sep-13 18:33N 50°49' W 001°06'0 0.0
2014-Sep-13 17:33N 50°49' W 001°06'6 5.7
2014-Sep-13 16:33N 50°43' W 001°03'1514.8
2014-Sep-13 15:33N 50°30' W 001°13'15 0.9
2014-Sep-12 22:26N 50°18' W 001°26'1112.4
2014-Sep-12 21:33N 50°25' W 001°14'1313.0
2014-Sep-12 20:34N 50°37' W 001°04'1010.3
2014-Sep-12 19:34N 50°47' W 001°06'2 1.8
2014-Sep-12 18:31N 50°49' W 001°06'0 0.0
2014-Sep-12 17:31N 50°49' W 001°06'7 7.3
2014-Sep-12 16:33N 50°42' W 001°03'27 1.5
2014-Sep-11 22:31N 50°18' W 001°24'1212.7
2014-Sep-11 21:33N 50°27' W 001°12'  

Dump ship's entire track history